sensor_id;sensor_type;location;lat;lon;timestamp;P1;durP1;ratioP1;P2;durP2;ratioP2
17606;SDS011;8922;52.240;20.980;2022-12-18T00:00:09;24.00;;;13.50;;
17606;SDS011;8922;52.240;20.980;2022-12-18T00:02:38;21.13;;;12.40;;
17606;SDS011;8922;52.240;20.980;2022-12-18T00:05:07;21.80;;;12.23;;
17606;SDS011;8922;52.240;20.980;2022-12-18T00:07:36;22.77;;;13.63;;
17606;SDS011;8922;52.240;20.980;2022-12-18T00:10:05;25.07;;;14.30;;
17606;SDS011;8922;52.240;20.980;2022-12-18T00:12:35;22.43;;;13.40;;
17606;SDS011;8922;52.240;20.980;2022-12-18T00:15:05;22.77;;;13.90;;
17606;SDS011;8922;52.240;20.980;2022-12-18T00:17:34;33.10;;;14.57;;
17606;SDS011;8922;52.240;20.980;2022-12-18T00:20:03;24.07;;;14.37;;
17606;SDS011;8922;52.240;20.980;2022-12-18T00:22:32;22.00;;;13.87;;
17606;SDS011;8922;52.240;20.980;2022-12-18T00:25:00;24.07;;;13.07;;
17606;SDS011;8922;52.240;20.980;2022-12-18T00:27:29;29.30;;;15.30;;
17606;SDS011;8922;52.240;20.980;2022-12-18T00:29:57;26.73;;;14.50;;
17606;SDS011;8922;52.240;20.980;2022-12-18T00:32:27;24.47;;;14.77;;
17606;SDS011;8922;52.240;20.980;2022-12-18T00:34:55;24.10;;;14.47;;
17606;SDS011;8922;52.240;20.980;2022-12-18T00:37:24;28.07;;;14.97;;
17606;SDS011;8922;52.240;20.980;2022-12-18T00:39:52;28.43;;;15.33;;
17606;SDS011;8922;52.240;20.980;2022-12-18T00:42:20;24.73;;;15.23;;
17606;SDS011;8922;52.240;20.980;2022-12-18T00:45:06;26.77;;;14.93;;
17606;SDS011;8922;52.240;20.980;2022-12-18T00:47:39;24.57;;;14.90;;
17606;SDS011;8922;52.240;20.980;2022-12-18T00:50:08;23.30;;;13.93;;
17606;SDS011;8922;52.240;20.980;2022-12-18T00:52:37;25.40;;;15.53;;
17606;SDS011;8922;52.240;20.980;2022-12-18T00:55:07;27.00;;;14.63;;
17606;SDS011;8922;52.240;20.980;2022-12-18T00:57:35;26.37;;;14.80;;
17606;SDS011;8922;52.240;20.980;2022-12-18T01:00:06;27.07;;;15.37;;
17606;SDS011;8922;52.240;20.980;2022-12-18T01:02:36;28.87;;;15.67;;
17606;SDS011;8922;52.240;20.980;2022-12-18T01:05:07;24.20;;;14.57;;
17606;SDS011;8922;52.240;20.980;2022-12-18T01:07:36;27.10;;;14.70;;
17606;SDS011;8922;52.240;20.980;2022-12-18T01:10:06;22.60;;;14.10;;
17606;SDS011;8922;52.240;20.980;2022-12-18T01:12:37;29.07;;;15.47;;
17606;SDS011;8922;52.240;20.980;2022-12-18T01:15:06;25.73;;;14.53;;
17606;SDS011;8922;52.240;20.980;2022-12-18T01:17:35;28.03;;;16.23;;
17606;SDS011;8922;52.240;20.980;2022-12-18T01:20:04;30.17;;;15.77;;
17606;SDS011;8922;52.240;20.980;2022-12-18T01:22:36;25.47;;;15.17;;
17606;SDS011;8922;52.240;20.980;2022-12-18T01:25:05;24.87;;;14.27;;
17606;SDS011;8922;52.240;20.980;2022-12-18T01:27:34;26.73;;;14.53;;
17606;SDS011;8922;52.240;20.980;2022-12-18T01:30:03;26.40;;;15.23;;
17606;SDS011;8922;52.240;20.980;2022-12-18T01:32:32;25.23;;;15.10;;
17606;SDS011;8922;52.240;20.980;2022-12-18T01:35:01;24.00;;;14.93;;
17606;SDS011;8922;52.240;20.980;2022-12-18T01:37:30;25.30;;;13.90;;
17606;SDS011;8922;52.240;20.980;2022-12-18T01:39:59;26.40;;;14.33;;
17606;SDS011;8922;52.240;20.980;2022-12-18T01:42:28;24.40;;;13.03;;
17606;SDS011;8922;52.240;20.980;2022-12-18T01:45:01;23.67;;;13.57;;
17606;SDS011;8922;52.240;20.980;2022-12-18T01:47:34;24.10;;;12.93;;
17606;SDS011;8922;52.240;20.980;2022-12-18T01:50:08;25.30;;;14.07;;
17606;SDS011;8922;52.240;20.980;2022-12-18T01:52:42;24.43;;;13.97;;
17606;SDS011;8922;52.240;20.980;2022-12-18T01:55:16;28.70;;;14.70;;
17606;SDS011;8922;52.240;20.980;2022-12-18T01:57:49;25.13;;;13.70;;
17606;SDS011;8922;52.240;20.980;2022-12-18T02:00:22;23.67;;;14.00;;
17606;SDS011;8922;52.240;20.980;2022-12-18T02:02:52;24.73;;;13.70;;
17606;SDS011;8922;52.240;20.980;2022-12-18T02:05:23;22.03;;;13.53;;
17606;SDS011;8922;52.240;20.980;2022-12-18T02:08:07;27.00;;;14.27;;
17606;SDS011;8922;52.240;20.980;2022-12-18T02:10:44;24.27;;;13.47;;
17606;SDS011;8922;52.240;20.980;2022-12-18T02:13:23;24.27;;;13.70;;
17606;SDS011;8922;52.240;20.980;2022-12-18T02:16:05;22.77;;;12.73;;
17606;SDS011;8922;52.240;20.980;2022-12-18T02:18:41;26.90;;;13.97;;
17606;SDS011;8922;52.240;20.980;2022-12-18T02:21:19;26.47;;;14.67;;
17606;SDS011;8922;52.240;20.980;2022-12-18T02:24:00;26.90;;;14.47;;
17606;SDS011;8922;52.240;20.980;2022-12-18T02:26:46;24.93;;;13.50;;
17606;SDS011;8922;52.240;20.980;2022-12-18T02:29:20;23.80;;;12.73;;
17606;SDS011;8922;52.240;20.980;2022-12-18T02:31:54;26.93;;;14.97;;
17606;SDS011;8922;52.240;20.980;2022-12-18T02:34:26;30.57;;;14.87;;
17606;SDS011;8922;52.240;20.980;2022-12-18T02:36:59;24.20;;;13.80;;
17606;SDS011;8922;52.240;20.980;2022-12-18T02:39:32;23.67;;;12.73;;
17606;SDS011;8922;52.240;20.980;2022-12-18T02:42:04;25.40;;;13.00;;
17606;SDS011;8922;52.240;20.980;2022-12-18T02:44:34;27.40;;;13.27;;
17606;SDS011;8922;52.240;20.980;2022-12-18T02:47:10;26.03;;;12.93;;
17606;SDS011;8922;52.240;20.980;2022-12-18T02:49:41;27.63;;;13.90;;
17606;SDS011;8922;52.240;20.980;2022-12-18T02:52:23;20.93;;;12.40;;
17606;SDS011;8922;52.240;20.980;2022-12-18T02:55:00;24.97;;;12.67;;
17606;SDS011;8922;52.240;20.980;2022-12-18T02:57:45;22.57;;;12.37;;
17606;SDS011;8922;52.240;20.980;2022-12-18T03:00:21;22.47;;;13.43;;
17606;SDS011;8922;52.240;20.980;2022-12-18T03:02:56;23.63;;;12.17;;
17606;SDS011;8922;52.240;20.980;2022-12-18T03:05:33;28.00;;;13.57;;
17606;SDS011;8922;52.240;20.980;2022-12-18T03:08:07;30.33;;;14.50;;
17606;SDS011;8922;52.240;20.980;2022-12-18T03:10:41;24.67;;;12.90;;
17606;SDS011;8922;52.240;20.980;2022-12-18T03:13:15;27.43;;;13.73;;
17606;SDS011;8922;52.240;20.980;2022-12-18T03:15:49;27.13;;;13.10;;
17606;SDS011;8922;52.240;20.980;2022-12-18T03:18:23;26.37;;;14.00;;
17606;SDS011;8922;52.240;20.980;2022-12-18T03:20:58;24.00;;;13.83;;
17606;SDS011;8922;52.240;20.980;2022-12-18T03:23:32;25.37;;;13.17;;
17606;SDS011;8922;52.240;20.980;2022-12-18T03:26:07;25.00;;;13.03;;
17606;SDS011;8922;52.240;20.980;2022-12-18T03:28:42;23.37;;;12.63;;
17606;SDS011;8922;52.240;20.980;2022-12-18T03:31:18;23.67;;;13.40;;
17606;SDS011;8922;52.240;20.980;2022-12-18T03:33:51;30.43;;;13.33;;
17606;SDS011;8922;52.240;20.980;2022-12-18T03:36:22;22.27;;;12.27;;
17606;SDS011;8922;52.240;20.980;2022-12-18T03:38:52;22.20;;;12.00;;
17606;SDS011;8922;52.240;20.980;2022-12-18T03:41:23;24.00;;;12.43;;
17606;SDS011;8922;52.240;20.980;2022-12-18T03:43:59;22.47;;;12.53;;
17606;SDS011;8922;52.240;20.980;2022-12-18T03:46:36;25.10;;;12.80;;
17606;SDS011;8922;52.240;20.980;2022-12-18T03:49:16;21.43;;;11.10;;
17606;SDS011;8922;52.240;20.980;2022-12-18T03:51:52;23.20;;;12.67;;
17606;SDS011;8922;52.240;20.980;2022-12-18T03:54:25;23.37;;;11.53;;
17606;SDS011;8922;52.240;20.980;2022-12-18T03:56:57;20.70;;;12.23;;
17606;SDS011;8922;52.240;20.980;2022-12-18T03:59:32;24.33;;;12.53;;
17606;SDS011;8922;52.240;20.980;2022-12-18T04:02:02;23.37;;;12.23;;
17606;SDS011;8922;52.240;20.980;2022-12-18T04:04:34;22.37;;;12.80;;
17606;SDS011;8922;52.240;20.980;2022-12-18T04:07:04;21.80;;;11.80;;
17606;SDS011;8922;52.240;20.980;2022-12-18T04:09:34;22.33;;;12.27;;
17606;SDS011;8922;52.240;20.980;2022-12-18T04:12:04;26.30;;;12.97;;
17606;SDS011;8922;52.240;20.980;2022-12-18T04:14:33;21.37;;;11.40;;
17606;SDS011;8922;52.240;20.980;2022-12-18T04:17:02;23.47;;;12.03;;
17606;SDS011;8922;52.240;20.980;2022-12-18T04:19:31;24.13;;;12.90;;
17606;SDS011;8922;52.240;20.980;2022-12-18T04:21:59;20.27;;;11.90;;
17606;SDS011;8922;52.240;20.980;2022-12-18T04:24:27;23.47;;;12.43;;
17606;SDS011;8922;52.240;20.980;2022-12-18T04:26:56;23.43;;;10.90;;
17606;SDS011;8922;52.240;20.980;2022-12-18T04:29:24;20.97;;;11.13;;
17606;SDS011;8922;52.240;20.980;2022-12-18T04:31:54;21.40;;;11.70;;
17606;SDS011;8922;52.240;20.980;2022-12-18T04:34:22;22.10;;;11.33;;
17606;SDS011;8922;52.240;20.980;2022-12-18T04:36:51;22.27;;;10.87;;
17606;SDS011;8922;52.240;20.980;2022-12-18T04:39:19;23.57;;;11.70;;
17606;SDS011;8922;52.240;20.980;2022-12-18T04:41:47;21.07;;;11.07;;
17606;SDS011;8922;52.240;20.980;2022-12-18T04:44:16;23.53;;;11.73;;
17606;SDS011;8922;52.240;20.980;2022-12-18T04:46:45;18.57;;;11.27;;
17606;SDS011;8922;52.240;20.980;2022-12-18T04:49:14;21.57;;;11.17;;
17606;SDS011;8922;52.240;20.980;2022-12-18T04:51:43;20.17;;;11.47;;
17606;SDS011;8922;52.240;20.980;2022-12-18T04:54:11;22.70;;;11.03;;
17606;SDS011;8922;52.240;20.980;2022-12-18T04:56:39;22.73;;;11.57;;
17606;SDS011;8922;52.240;20.980;2022-12-18T04:59:08;19.97;;;11.13;;
17606;SDS011;8922;52.240;20.980;2022-12-18T05:01:36;18.27;;;10.67;;
17606;SDS011;8922;52.240;20.980;2022-12-18T05:04:05;21.77;;;11.13;;
17606;SDS011;8922;52.240;20.980;2022-12-18T05:06:35;17.80;;;10.50;;
17606;SDS011;8922;52.240;20.980;2022-12-18T05:09:03;18.33;;;11.00;;
17606;SDS011;8922;52.240;20.980;2022-12-18T05:11:31;20.93;;;11.07;;
17606;SDS011;8922;52.240;20.980;2022-12-18T05:14:00;21.63;;;11.87;;
17606;SDS011;8922;52.240;20.980;2022-12-18T05:16:28;20.77;;;10.73;;
17606;SDS011;8922;52.240;20.980;2022-12-18T05:18:57;22.53;;;11.73;;
17606;SDS011;8922;52.240;20.980;2022-12-18T05:21:25;23.67;;;12.17;;
17606;SDS011;8922;52.240;20.980;2022-12-18T05:23:55;20.00;;;10.47;;
17606;SDS011;8922;52.240;20.980;2022-12-18T05:26:23;24.00;;;12.10;;
17606;SDS011;8922;52.240;20.980;2022-12-18T05:28:51;23.90;;;12.40;;
17606;SDS011;8922;52.240;20.980;2022-12-18T05:31:22;22.70;;;11.60;;
17606;SDS011;8922;52.240;20.980;2022-12-18T05:33:50;19.70;;;11.53;;
17606;SDS011;8922;52.240;20.980;2022-12-18T05:36:19;22.43;;;11.90;;
17606;SDS011;8922;52.240;20.980;2022-12-18T05:38:47;23.03;;;11.60;;
17606;SDS011;8922;52.240;20.980;2022-12-18T05:41:17;24.53;;;12.17;;
17606;SDS011;8922;52.240;20.980;2022-12-18T05:43:46;24.77;;;12.47;;
17606;SDS011;8922;52.240;20.980;2022-12-18T05:46:15;22.87;;;11.60;;
17606;SDS011;8922;52.240;20.980;2022-12-18T05:48:45;25.43;;;12.13;;
17606;SDS011;8922;52.240;20.980;2022-12-18T05:51:15;26.23;;;13.17;;
17606;SDS011;8922;52.240;20.980;2022-12-18T05:53:45;24.73;;;13.20;;
17606;SDS011;8922;52.240;20.980;2022-12-18T05:56:15;25.80;;;12.63;;
17606;SDS011;8922;52.240;20.980;2022-12-18T05:58:47;26.33;;;13.53;;
17606;SDS011;8922;52.240;20.980;2022-12-18T06:01:20;29.63;;;13.30;;
17606;SDS011;8922;52.240;20.980;2022-12-18T06:03:51;31.67;;;15.17;;
17606;SDS011;8922;52.240;20.980;2022-12-18T06:06:21;29.27;;;13.27;;
17606;SDS011;8922;52.240;20.980;2022-12-18T06:08:52;28.27;;;13.37;;
17606;SDS011;8922;52.240;20.980;2022-12-18T06:11:23;27.60;;;13.70;;
17606;SDS011;8922;52.240;20.980;2022-12-18T06:13:54;34.93;;;15.17;;
17606;SDS011;8922;52.240;20.980;2022-12-18T06:16:26;28.90;;;14.20;;
17606;SDS011;8922;52.240;20.980;2022-12-18T06:18:56;28.93;;;14.73;;
17606;SDS011;8922;52.240;20.980;2022-12-18T06:21:25;31.67;;;15.07;;
17606;SDS011;8922;52.240;20.980;2022-12-18T06:23:54;36.73;;;15.40;;
17606;SDS011;8922;52.240;20.980;2022-12-18T06:26:24;33.10;;;15.77;;
17606;SDS011;8922;52.240;20.980;2022-12-18T06:28:54;30.97;;;14.87;;
17606;SDS011;8922;52.240;20.980;2022-12-18T06:31:22;34.00;;;15.63;;
17606;SDS011;8922;52.240;20.980;2022-12-18T06:33:51;35.23;;;15.23;;
17606;SDS011;8922;52.240;20.980;2022-12-18T06:36:19;31.40;;;14.83;;
17606;SDS011;8922;52.240;20.980;2022-12-18T06:38:48;39.75;;;18.25;;
17606;SDS011;8922;52.240;20.980;2022-12-18T06:41:17;39.60;;;16.83;;
17606;SDS011;8922;52.240;20.980;2022-12-18T06:43:49;37.50;;;16.73;;
17606;SDS011;8922;52.240;20.980;2022-12-18T06:46:24;34.57;;;15.73;;
17606;SDS011;8922;52.240;20.980;2022-12-18T06:48:53;37.50;;;16.40;;
17606;SDS011;8922;52.240;20.980;2022-12-18T06:51:23;37.15;;;17.77;;
17606;SDS011;8922;52.240;20.980;2022-12-18T06:53:52;33.73;;;15.77;;
17606;SDS011;8922;52.240;20.980;2022-12-18T06:56:21;31.67;;;16.70;;
17606;SDS011;8922;52.240;20.980;2022-12-18T06:58:51;40.70;;;21.77;;
17606;SDS011;8922;52.240;20.980;2022-12-18T07:01:19;40.47;;;22.90;;
17606;SDS011;8922;52.240;20.980;2022-12-18T07:03:51;33.63;;;17.17;;
17606;SDS011;8922;52.240;20.980;2022-12-18T07:06:21;35.07;;;17.57;;
17606;SDS011;8922;52.240;20.980;2022-12-18T07:08:52;33.47;;;16.97;;
17606;SDS011;8922;52.240;20.980;2022-12-18T07:11:22;32.30;;;16.17;;
17606;SDS011;8922;52.240;20.980;2022-12-18T07:13:52;36.57;;;15.67;;
17606;SDS011;8922;52.240;20.980;2022-12-18T07:16:21;38.80;;;17.07;;
17606;SDS011;8922;52.240;20.980;2022-12-18T07:18:51;32.40;;;16.10;;
17606;SDS011;8922;52.240;20.980;2022-12-18T07:21:20;32.60;;;15.43;;
17606;SDS011;8922;52.240;20.980;2022-12-18T07:23:50;36.80;;;16.07;;
17606;SDS011;8922;52.240;20.980;2022-12-18T07:26:19;33.13;;;16.60;;
17606;SDS011;8922;52.240;20.980;2022-12-18T07:28:49;38.77;;;15.77;;
17606;SDS011;8922;52.240;20.980;2022-12-18T07:31:19;34.67;;;16.20;;
17606;SDS011;8922;52.240;20.980;2022-12-18T07:33:49;37.13;;;16.53;;
17606;SDS011;8922;52.240;20.980;2022-12-18T07:36:19;39.93;;;16.93;;
17606;SDS011;8922;52.240;20.980;2022-12-18T07:38:50;30.60;;;16.47;;
17606;SDS011;8922;52.240;20.980;2022-12-18T07:41:19;38.93;;;17.37;;
17606;SDS011;8922;52.240;20.980;2022-12-18T07:43:48;31.77;;;15.83;;
17606;SDS011;8922;52.240;20.980;2022-12-18T07:46:18;33.23;;;16.43;;
17606;SDS011;8922;52.240;20.980;2022-12-18T07:48:47;40.70;;;17.23;;
17606;SDS011;8922;52.240;20.980;2022-12-18T07:51:16;34.60;;;16.60;;
17606;SDS011;8922;52.240;20.980;2022-12-18T07:53:46;31.47;;;15.43;;
17606;SDS011;8922;52.240;20.980;2022-12-18T07:56:17;38.47;;;16.10;;
17606;SDS011;8922;52.240;20.980;2022-12-18T07:58:54;38.47;;;16.70;;
17606;SDS011;8922;52.240;20.980;2022-12-18T08:01:23;38.63;;;15.97;;
17606;SDS011;8922;52.240;20.980;2022-12-18T08:03:52;31.03;;;14.93;;
17606;SDS011;8922;52.240;20.980;2022-12-18T08:06:21;36.40;;;15.60;;
17606;SDS011;8922;52.240;20.980;2022-12-18T08:08:50;35.07;;;15.37;;
17606;SDS011;8922;52.240;20.980;2022-12-18T08:11:20;34.73;;;16.77;;
17606;SDS011;8922;52.240;20.980;2022-12-18T08:13:50;33.67;;;16.33;;
17606;SDS011;8922;52.240;20.980;2022-12-18T08:16:18;35.63;;;15.77;;
17606;SDS011;8922;52.240;20.980;2022-12-18T08:18:51;34.23;;;15.67;;
17606;SDS011;8922;52.240;20.980;2022-12-18T08:21:20;34.63;;;14.23;;
17606;SDS011;8922;52.240;20.980;2022-12-18T08:23:52;33.07;;;15.30;;
17606;SDS011;8922;52.240;20.980;2022-12-18T08:26:22;35.93;;;15.37;;
17606;SDS011;8922;52.240;20.980;2022-12-18T08:28:52;28.83;;;14.70;;
17606;SDS011;8922;52.240;20.980;2022-12-18T08:31:22;29.93;;;15.83;;
17606;SDS011;8922;52.240;20.980;2022-12-18T08:33:53;34.07;;;15.20;;
17606;SDS011;8922;52.240;20.980;2022-12-18T08:36:22;31.10;;;15.03;;
17606;SDS011;8922;52.240;20.980;2022-12-18T08:38:52;28.33;;;14.10;;
17606;SDS011;8922;52.240;20.980;2022-12-18T08:41:21;28.67;;;14.70;;
17606;SDS011;8922;52.240;20.980;2022-12-18T08:43:50;31.13;;;15.37;;
17606;SDS011;8922;52.240;20.980;2022-12-18T08:46:37;31.23;;;15.13;;
17606;SDS011;8922;52.240;20.980;2022-12-18T08:49:09;28.87;;;14.87;;
17606;SDS011;8922;52.240;20.980;2022-12-18T08:51:39;29.00;;;14.87;;
17606;SDS011;8922;52.240;20.980;2022-12-18T08:54:08;25.77;;;14.13;;
17606;SDS011;8922;52.240;20.980;2022-12-18T08:56:39;32.03;;;15.57;;
17606;SDS011;8922;52.240;20.980;2022-12-18T08:59:08;33.07;;;15.47;;
17606;SDS011;8922;52.240;20.980;2022-12-18T09:01:44;30.90;;;15.47;;
17606;SDS011;8922;52.240;20.980;2022-12-18T09:04:15;33.07;;;15.33;;
17606;SDS011;8922;52.240;20.980;2022-12-18T09:06:44;28.20;;;14.87;;
17606;SDS011;8922;52.240;20.980;2022-12-18T09:09:13;30.33;;;15.43;;
17606;SDS011;8922;52.240;20.980;2022-12-18T09:11:41;33.43;;;16.13;;
17606;SDS011;8922;52.240;20.980;2022-12-18T09:14:09;33.23;;;16.53;;
17606;SDS011;8922;52.240;20.980;2022-12-18T09:16:39;29.03;;;15.87;;
17606;SDS011;8922;52.240;20.980;2022-12-18T09:19:08;30.40;;;14.60;;
17606;SDS011;8922;52.240;20.980;2022-12-18T09:21:38;28.67;;;15.83;;
17606;SDS011;8922;52.240;20.980;2022-12-18T09:24:13;32.03;;;15.83;;
17606;SDS011;8922;52.240;20.980;2022-12-18T09:26:42;30.57;;;15.03;;
17606;SDS011;8922;52.240;20.980;2022-12-18T09:29:13;32.43;;;15.77;;
17606;SDS011;8922;52.240;20.980;2022-12-18T09:31:44;27.77;;;15.73;;
17606;SDS011;8922;52.240;20.980;2022-12-18T09:34:12;31.33;;;15.73;;
17606;SDS011;8922;52.240;20.980;2022-12-18T09:36:42;33.87;;;17.27;;
17606;SDS011;8922;52.240;20.980;2022-12-18T09:39:13;34.63;;;16.20;;
17606;SDS011;8922;52.240;20.980;2022-12-18T09:41:44;32.97;;;16.40;;
17606;SDS011;8922;52.240;20.980;2022-12-18T09:44:18;34.53;;;16.83;;
17606;SDS011;8922;52.240;20.980;2022-12-18T09:46:55;31.87;;;15.80;;
17606;SDS011;8922;52.240;20.980;2022-12-18T09:49:34;41.07;;;19.47;;
17606;SDS011;8922;52.240;20.980;2022-12-18T09:52:12;33.77;;;18.67;;
17606;SDS011;8922;52.240;20.980;2022-12-18T09:54:48;38.33;;;19.80;;
17606;SDS011;8922;52.240;20.980;2022-12-18T09:57:22;39.27;;;19.93;;
17606;SDS011;8922;52.240;20.980;2022-12-18T09:59:53;38.00;;;19.53;;
17606;SDS011;8922;52.240;20.980;2022-12-18T10:02:26;39.73;;;19.70;;
17606;SDS011;8922;52.240;20.980;2022-12-18T10:05:03;36.80;;;19.77;;
17606;SDS011;8922;52.240;20.980;2022-12-18T10:07:39;33.13;;;17.70;;
17606;SDS011;8922;52.240;20.980;2022-12-18T10:10:26;39.13;;;19.50;;
17606;SDS011;8922;52.240;20.980;2022-12-18T10:13:07;39.67;;;20.33;;
17606;SDS011;8922;52.240;20.980;2022-12-18T10:15:54;43.77;;;20.90;;
17606;SDS011;8922;52.240;20.980;2022-12-18T10:18:40;37.53;;;19.13;;
17606;SDS011;8922;52.240;20.980;2022-12-18T10:21:30;42.20;;;20.50;;
17606;SDS011;8922;52.240;20.980;2022-12-18T10:24:11;48.67;;;21.83;;
17606;SDS011;8922;52.240;20.980;2022-12-18T10:26:48;38.53;;;20.23;;
17606;SDS011;8922;52.240;20.980;2022-12-18T10:29:16;35.20;;;18.07;;
17606;SDS011;8922;52.240;20.980;2022-12-18T10:31:44;40.53;;;19.50;;
17606;SDS011;8922;52.240;20.980;2022-12-18T10:34:13;39.27;;;19.67;;
17606;SDS011;8922;52.240;20.980;2022-12-18T10:36:41;38.00;;;20.43;;
17606;SDS011;8922;52.240;20.980;2022-12-18T10:39:18;38.37;;;18.93;;
17606;SDS011;8922;52.240;20.980;2022-12-18T10:41:51;36.27;;;19.77;;
17606;SDS011;8922;52.240;20.980;2022-12-18T10:44:36;38.77;;;18.13;;
17606;SDS011;8922;52.240;20.980;2022-12-18T10:47:06;42.43;;;20.13;;
17606;SDS011;8922;52.240;20.980;2022-12-18T10:49:46;40.40;;;19.73;;
17606;SDS011;8922;52.240;20.980;2022-12-18T10:52:17;38.77;;;20.27;;
17606;SDS011;8922;52.240;20.980;2022-12-18T10:54:50;43.23;;;21.20;;
17606;SDS011;8922;52.240;20.980;2022-12-18T10:57:32;43.17;;;19.63;;
17606;SDS011;8922;52.240;20.980;2022-12-18T11:00:20;43.37;;;20.00;;
17606;SDS011;8922;52.240;20.980;2022-12-18T11:02:56;43.93;;;20.30;;
17606;SDS011;8922;52.240;20.980;2022-12-18T11:05:26;45.90;;;19.40;;
17606;SDS011;8922;52.240;20.980;2022-12-18T11:07:57;41.07;;;19.50;;
17606;SDS011;8922;52.240;20.980;2022-12-18T11:10:30;47.97;;;20.83;;
17606;SDS011;8922;52.240;20.980;2022-12-18T11:13:16;38.30;;;19.40;;
17606;SDS011;8922;52.240;20.980;2022-12-18T11:15:48;43.33;;;20.40;;
17606;SDS011;8922;52.240;20.980;2022-12-18T11:18:17;44.90;;;21.17;;
17606;SDS011;8922;52.240;20.980;2022-12-18T11:20:53;41.23;;;21.87;;
17606;SDS011;8922;52.240;20.980;2022-12-18T11:23:25;43.10;;;20.67;;
17606;SDS011;8922;52.240;20.980;2022-12-18T11:25:56;39.57;;;19.90;;
17606;SDS011;8922;52.240;20.980;2022-12-18T11:28:37;45.20;;;21.13;;
17606;SDS011;8922;52.240;20.980;2022-12-18T11:31:22;45.40;;;21.30;;
17606;SDS011;8922;52.240;20.980;2022-12-18T11:34:04;45.27;;;21.27;;
17606;SDS011;8922;52.240;20.980;2022-12-18T11:36:54;46.07;;;21.70;;
17606;SDS011;8922;52.240;20.980;2022-12-18T11:39:28;45.80;;;21.77;;
17606;SDS011;8922;52.240;20.980;2022-12-18T11:42:04;45.27;;;21.13;;
17606;SDS011;8922;52.240;20.980;2022-12-18T11:44:42;42.77;;;21.03;;
17606;SDS011;8922;52.240;20.980;2022-12-18T11:47:19;43.63;;;21.17;;
17606;SDS011;8922;52.240;20.980;2022-12-18T11:49:56;46.17;;;22.90;;
17606;SDS011;8922;52.240;20.980;2022-12-18T11:52:30;41.90;;;20.53;;
17606;SDS011;8922;52.240;20.980;2022-12-18T11:55:09;41.77;;;20.87;;
17606;SDS011;8922;52.240;20.980;2022-12-18T11:57:44;44.53;;;21.40;;
17606;SDS011;8922;52.240;20.980;2022-12-18T12:00:22;46.00;;;22.53;;
17606;SDS011;8922;52.240;20.980;2022-12-18T12:06:08;42.97;;;21.10;;
17606;SDS011;8922;52.240;20.980;2022-12-18T12:08:46;42.43;;;22.07;;
17606;SDS011;8922;52.240;20.980;2022-12-18T12:11:34;41.43;;;20.30;;
17606;SDS011;8922;52.240;20.980;2022-12-18T12:14:23;41.37;;;20.97;;
17606;SDS011;8922;52.240;20.980;2022-12-18T12:17:11;39.40;;;20.93;;
17606;SDS011;8922;52.240;20.980;2022-12-18T12:19:51;39.47;;;20.97;;
17606;SDS011;8922;52.240;20.980;2022-12-18T12:22:32;47.13;;;22.10;;
17606;SDS011;8922;52.240;20.980;2022-12-18T12:25:19;41.57;;;21.50;;
17606;SDS011;8922;52.240;20.980;2022-12-18T12:28:04;40.73;;;20.33;;
17606;SDS011;8922;52.240;20.980;2022-12-18T12:30:52;43.30;;;21.30;;
17606;SDS011;8922;52.240;20.980;2022-12-18T12:33:32;42.43;;;21.33;;
17606;SDS011;8922;52.240;20.980;2022-12-18T12:36:13;37.73;;;19.73;;
17606;SDS011;8922;52.240;20.980;2022-12-18T12:38:51;39.40;;;19.47;;
17606;SDS011;8922;52.240;20.980;2022-12-18T12:41:25;41.43;;;20.83;;
17606;SDS011;8922;52.240;20.980;2022-12-18T12:44:17;42.97;;;21.27;;
17606;SDS011;8922;52.240;20.980;2022-12-18T12:46:54;43.97;;;20.70;;
17606;SDS011;8922;52.240;20.980;2022-12-18T12:49:29;41.10;;;20.33;;
17606;SDS011;8922;52.240;20.980;2022-12-18T12:52:07;42.70;;;21.33;;
17606;SDS011;8922;52.240;20.980;2022-12-18T12:54:43;41.60;;;21.13;;
17606;SDS011;8922;52.240;20.980;2022-12-18T12:57:15;47.10;;;20.97;;
17606;SDS011;8922;52.240;20.980;2022-12-18T12:59:51;41.27;;;20.50;;
17606;SDS011;8922;52.240;20.980;2022-12-18T13:02:35;39.63;;;19.90;;
17606;SDS011;8922;52.240;20.980;2022-12-18T13:05:16;44.77;;;21.70;;
17606;SDS011;8922;52.240;20.980;2022-12-18T13:07:52;44.87;;;22.10;;
17606;SDS011;8922;52.240;20.980;2022-12-18T13:10:28;40.67;;;21.33;;
17606;SDS011;8922;52.240;20.980;2022-12-18T13:13:04;43.63;;;21.83;;
17606;SDS011;8922;52.240;20.980;2022-12-18T13:15:39;40.73;;;19.73;;
17606;SDS011;8922;52.240;20.980;2022-12-18T13:18:15;41.33;;;21.43;;
17606;SDS011;8922;52.240;20.980;2022-12-18T13:20:47;38.73;;;21.07;;
17606;SDS011;8922;52.240;20.980;2022-12-18T13:23:31;36.03;;;20.20;;
17606;SDS011;8922;52.240;20.980;2022-12-18T13:29:01;48.17;;;21.00;;
17606;SDS011;8922;52.240;20.980;2022-12-18T13:35:04;41.27;;;21.17;;
17606;SDS011;8922;52.240;20.980;2022-12-18T13:38:18;39.50;;;18.77;;
17606;SDS011;8922;52.240;20.980;2022-12-18T13:40:53;40.37;;;19.63;;
17606;SDS011;8922;52.240;20.980;2022-12-18T13:43:27;40.33;;;20.53;;
17606;SDS011;8922;52.240;20.980;2022-12-18T13:46:19;43.70;;;21.00;;
17606;SDS011;8922;52.240;20.980;2022-12-18T13:48:52;39.40;;;20.50;;
17606;SDS011;8922;52.240;20.980;2022-12-18T13:51:28;41.97;;;21.87;;
17606;SDS011;8922;52.240;20.980;2022-12-18T13:54:00;45.73;;;21.80;;
17606;SDS011;8922;52.240;20.980;2022-12-18T13:56:43;42.83;;;21.43;;
17606;SDS011;8922;52.240;20.980;2022-12-18T13:59:17;43.80;;;20.93;;
17606;SDS011;8922;52.240;20.980;2022-12-18T14:01:51;43.20;;;21.00;;
17606;SDS011;8922;52.240;20.980;2022-12-18T14:04:24;42.20;;;20.50;;
17606;SDS011;8922;52.240;20.980;2022-12-18T14:07:05;40.07;;;20.43;;
17606;SDS011;8922;52.240;20.980;2022-12-18T14:09:40;41.13;;;19.40;;
17606;SDS011;8922;52.240;20.980;2022-12-18T14:12:14;41.63;;;19.93;;
17606;SDS011;8922;52.240;20.980;2022-12-18T14:15:03;49.03;;;21.63;;
17606;SDS011;8922;52.240;20.980;2022-12-18T14:17:42;44.87;;;20.50;;
17606;SDS011;8922;52.240;20.980;2022-12-18T14:20:13;44.20;;;21.50;;
17606;SDS011;8922;52.240;20.980;2022-12-18T14:22:44;43.13;;;20.03;;
17606;SDS011;8922;52.240;20.980;2022-12-18T14:25:15;44.13;;;20.70;;
17606;SDS011;8922;52.240;20.980;2022-12-18T14:27:52;43.23;;;21.50;;
17606;SDS011;8922;52.240;20.980;2022-12-18T14:30:31;41.00;;;20.40;;
17606;SDS011;8922;52.240;20.980;2022-12-18T14:33:03;48.43;;;21.57;;
17606;SDS011;8922;52.240;20.980;2022-12-18T14:35:37;41.07;;;19.93;;
17606;SDS011;8922;52.240;20.980;2022-12-18T14:38:19;37.33;;;20.23;;
17606;SDS011;8922;52.240;20.980;2022-12-18T14:40:52;47.63;;;22.07;;
17606;SDS011;8922;52.240;20.980;2022-12-18T14:43:25;44.00;;;21.27;;
17606;SDS011;8922;52.240;20.980;2022-12-18T14:45:55;43.03;;;21.27;;
17606;SDS011;8922;52.240;20.980;2022-12-18T14:48:37;39.30;;;19.70;;
17606;SDS011;8922;52.240;20.980;2022-12-18T14:51:15;40.87;;;20.53;;
17606;SDS011;8922;52.240;20.980;2022-12-18T14:53:47;40.17;;;19.40;;
17606;SDS011;8922;52.240;20.980;2022-12-18T14:56:22;44.60;;;21.90;;
17606;SDS011;8922;52.240;20.980;2022-12-18T14:58:53;44.67;;;21.27;;
17606;SDS011;8922;52.240;20.980;2022-12-18T15:01:26;41.33;;;20.60;;
17606;SDS011;8922;52.240;20.980;2022-12-18T15:03:57;40.60;;;21.00;;